Flight Track Log - Related Links

Times and Time Zones

All times are in EDT time to prevent confusion due to time zone crossing. See the N556VP flight status page for this flight to view local times or setup timezone preferences in your user account.


Time Position Orientation Groundspeed Altitude Reporting Facility
EDT Latitude Longitude Course Direction KTS MPH feet Rate Location/Type
Sun 02:29:30 PM 31.9336 -102.3236 310° West 274 315 11,500  Level Fort Worth Center
Sun 02:30:30 PM 32.0081 -102.3936 321° Northwest 304 350 14,400 3,100 Climbing Fort Worth Center
Sun 02:31:30 PM 32.0822 -102.4689 319° Northwest 329 379 17,700 2,700 Climbing Fort Worth Center
Sun 02:32:30 PM 32.1586 -102.5442 320° Northwest 343 395 19,800 2,100 Climbing Fort Worth Center
Sun 02:33:00 PM 32.3797 -102.6464 320° Northwest  Level FlightAware Approximate
Sun 02:33:30 PM 32.2386 -102.6250 319° Northwest 362 417 21,900  Level Fort Worth Center
Sun 02:34:30 PM 32.3250 -102.7086 321° Northwest 383 441 24,300 2,450 Climbing Fort Worth Center
Sun 02:35:30 PM 32.4072 -102.7897 320° Northwest 388 447 26,800 1,800 Climbing Fort Worth Center
Sun 02:36:30 PM 32.4933 -102.8736 321° Northwest 388 447 27,900 600 Climbing Fort Worth Center
Sun 02:37:30 PM 32.5833 -102.9603 321° Northwest 401 461 28,000 50 Climbing Fort Worth Center
Sun 02:38:30 PM 32.6775 -103.0500 321° Northwest 417 480 28,000  Level Fort Worth Center
Sun 02:39:30 PM 32.7733 -103.1425 321° Northwest 430 495 28,000  Level Fort Worth Center
Sun 02:41:24 PM 32.9494 -103.3231 319° Northwest 429 494 28,000  Level Albuquerque Center
Sun 02:42:26 PM 33.0408 -103.4142 320° Northwest 428 493 28,000  Level Albuquerque Center
Sun 02:43:28 PM 33.1317 -103.5053 320° Northwest 428 493 28,000  Level Albuquerque Center
Sun 02:44:30 PM 33.2228 -103.5956 320° Northwest 425 489 28,000  Level Albuquerque Center
Sun 02:45:32 PM 33.3275 -103.6989 321° Northwest 429 494 28,000  Level Albuquerque Center
Sun 02:46:34 PM 33.4214 -103.7914 321° Northwest 436 502 28,000  Level Albuquerque Center
Sun 02:47:36 PM 33.5189 -103.8908 320° Northwest 431 496 28,000  Level Albuquerque Center
Sun 02:48:38 PM 33.6092 -103.9831 320° Northwest 429 494 28,000  Level Albuquerque Center
Sun 02:49:40 PM 33.7064 -104.0822 320° Northwest 429 494 28,000  Level Albuquerque Center
Sun 02:50:42 PM 33.7967 -104.1747 320° Northwest 428 493 28,000  Level Albuquerque Center
Sun 02:51:44 PM 33.8936 -104.2753 319° Northwest 428 493 28,000  Level Albuquerque Center
Sun 02:52:46 PM 33.9839 -104.3672 320° Northwest 428 493 28,000  Level Albuquerque Center
Sun 02:53:48 PM 34.0686 -104.4553 319° Northwest 429 494 28,000  Level Albuquerque Center
Sun 02:54:50 PM 34.1614 -104.5503 320° Northwest 432 497 28,000  Level Albuquerque Center
Sun 02:55:52 PM 34.2694 -104.6600 320° Northwest 431 496 28,000  Level Albuquerque Center
Sun 02:56:54 PM 34.3625 -104.7578 319° Northwest 435 501 28,000  Level Albuquerque Center
Sun 02:57:56 PM 34.4544 -104.8531 319° Northwest 432 497 28,000  Level Albuquerque Center
Sun 02:58:58 PM 34.5461 -104.9489 319° Northwest 430 495 28,000  Level Albuquerque Center
Sun 03:00:00 PM 34.6369 -105.0439 319° Northwest 427 491 28,000  Level Albuquerque Center
Sun 03:01:02 PM 34.7278 -105.1394 319° Northwest 427 491 28,000 -387 Level Albuquerque Center
Sun 03:02:04 PM 34.8194 -105.2347 320° Northwest 428 493 27,200 -1,113 Descending Albuquerque Center
Sun 03:03:06 PM 34.9100 -105.3306 319° Northwest 427 491 25,700 -1,597 Descending Albuquerque Center
Sun 03:04:08 PM 35.0133 -105.4397 319° Northwest 420 483 23,900 -1,887 Descending Albuquerque Center
Sun 03:05:10 PM 35.0983 -105.5311 319° Northwest 409 471 21,800 -2,032 Descending Albuquerque Center
Sun 03:06:12 PM 35.1806 -105.6181 319° Northwest 397 457 19,700 -2,032 Descending Albuquerque Center
Sun 03:07:14 PM 35.2597 -105.7033 319° Northwest 383 441 17,600 -2,129 Descending Albuquerque Center
Sun 03:08:16 PM 35.3353 -105.7839 319° Northwest 367 422 15,300 -2,032 Descending Albuquerque Center
Sun 03:09:18 PM 35.4136 -105.8561 323° Northwest 357 411 13,400 -1,887 Descending Albuquerque Center
Sun 03:10:20 PM 35.4914 -105.9111 330° Northwest 334 384 11,400 -1,839 Descending Albuquerque Center
Sun 03:11:22 PM 35.5586 -105.9658 326° Northwest 310 357 9,600 -1,597 Descending Albuquerque Center
Sun 03:12:24 PM 35.6133 -106.0161 323° Northwest 280 322 8,100 -1,355 Descending Albuquerque Center
Sun 03:13:26 PM 35.6417 -106.0711 302° West 220 253 6,800 -720 Descending Albuquerque Center
Sun 03:14:29 PM 35.6147 -106.0925 213° Southwest 199 229 6,600 -190 Descending Albuquerque Center

Login

Don't have an account? Register now (free) for customized features, flight alerts, and more!